sensor_id;sensor_type;location;lat;lon;timestamp;temperature;humidity
10980;DHT22;5543;51.734;8.744;2023-04-06T00:00:01;3.50;75.90
10980;DHT22;5543;51.734;8.744;2023-04-06T00:02:29;3.50;76.30
10980;DHT22;5543;51.734;8.744;2023-04-06T00:04:57;3.50;75.90
10980;DHT22;5543;51.734;8.744;2023-04-06T00:07:26;3.50;76.10
10980;DHT22;5543;51.734;8.744;2023-04-06T00:09:55;3.50;76.00
10980;DHT22;5543;51.734;8.744;2023-04-06T00:12:24;3.50;76.40
10980;DHT22;5543;51.734;8.744;2023-04-06T00:14:52;3.40;75.90
10980;DHT22;5543;51.734;8.744;2023-04-06T00:17:20;3.50;76.00
10980;DHT22;5543;51.734;8.744;2023-04-06T00:19:48;3.40;76.10
10980;DHT22;5543;51.734;8.744;2023-04-06T00:22:17;3.40;76.30
10980;DHT22;5543;51.734;8.744;2023-04-06T00:24:45;3.40;76.30
10980;DHT22;5543;51.734;8.744;2023-04-06T00:27:13;3.40;76.70
10980;DHT22;5543;51.734;8.744;2023-04-06T00:29:43;3.30;76.60
10980;DHT22;5543;51.734;8.744;2023-04-06T00:32:12;3.30;76.60
10980;DHT22;5543;51.734;8.744;2023-04-06T00:34:40;3.30;76.90
10980;DHT22;5543;51.734;8.744;2023-04-06T00:37:08;3.20;77.20
10980;DHT22;5543;51.734;8.744;2023-04-06T00:39:36;3.20;76.70
10980;DHT22;5543;51.734;8.744;2023-04-06T00:42:09;3.20;77.40
10980;DHT22;5543;51.734;8.744;2023-04-06T00:44:38;3.20;77.30
10980;DHT22;5543;51.734;8.744;2023-04-06T00:47:08;3.20;77.00
10980;DHT22;5543;51.734;8.744;2023-04-06T00:49:36;3.20;77.10
10980;DHT22;5543;51.734;8.744;2023-04-06T00:52:04;3.30;77.40
10980;DHT22;5543;51.734;8.744;2023-04-06T00:54:32;3.20;77.40
10980;DHT22;5543;51.734;8.744;2023-04-06T00:57:01;3.10;77.10
10980;DHT22;5543;51.734;8.744;2023-04-06T00:59:29;3.10;77.30
10980;DHT22;5543;51.734;8.744;2023-04-06T01:01:57;3.10;77.20
10980;DHT22;5543;51.734;8.744;2023-04-06T01:04:27;3.10;77.70
10980;DHT22;5543;51.734;8.744;2023-04-06T01:06:55;3.10;77.70
10980;DHT22;5543;51.734;8.744;2023-04-06T01:09:23;3.00;77.80
10980;DHT22;5543;51.734;8.744;2023-04-06T01:11:51;3.00;77.80
10980;DHT22;5543;51.734;8.744;2023-04-06T01:14:20;3.00;78.00
10980;DHT22;5543;51.734;8.744;2023-04-06T01:16:48;3.00;77.80
10980;DHT22;5543;51.734;8.744;2023-04-06T01:19:17;3.00;77.80
10980;DHT22;5543;51.734;8.744;2023-04-06T01:21:46;3.00;78.10
10980;DHT22;5543;51.734;8.744;2023-04-06T01:24:17;3.00;78.10
10980;DHT22;5543;51.734;8.744;2023-04-06T01:26:45;3.00;78.10
10980;DHT22;5543;51.734;8.744;2023-04-06T01:29:14;2.90;78.10
10980;DHT22;5543;51.734;8.744;2023-04-06T01:31:42;2.90;78.10
10980;DHT22;5543;51.734;8.744;2023-04-06T01:34:10;2.90;78.40
10980;DHT22;5543;51.734;8.744;2023-04-06T01:36:38;2.90;78.40
10980;DHT22;5543;51.734;8.744;2023-04-06T01:39:06;2.90;78.30
10980;DHT22;5543;51.734;8.744;2023-04-06T01:41:36;2.80;78.50
10980;DHT22;5543;51.734;8.744;2023-04-06T01:44:05;2.80;78.80
10980;DHT22;5543;51.734;8.744;2023-04-06T01:46:33;2.70;78.80
10980;DHT22;5543;51.734;8.744;2023-04-06T01:49:01;2.70;79.00
10980;DHT22;5543;51.734;8.744;2023-04-06T01:51:29;2.70;78.90
10980;DHT22;5543;51.734;8.744;2023-04-06T01:53:58;2.70;79.00
10980;DHT22;5543;51.734;8.744;2023-04-06T01:56:26;2.60;79.10
10980;DHT22;5543;51.734;8.744;2023-04-06T01:58:55;2.60;79.30
10980;DHT22;5543;51.734;8.744;2023-04-06T02:01:24;2.60;79.30
10980;DHT22;5543;51.734;8.744;2023-04-06T02:03:52;2.50;79.70
10980;DHT22;5543;51.734;8.744;2023-04-06T02:06:20;2.50;79.60
10980;DHT22;5543;51.734;8.744;2023-04-06T02:08:48;2.40;79.70
10980;DHT22;5543;51.734;8.744;2023-04-06T02:11:17;2.40;80.00
10980;DHT22;5543;51.734;8.744;2023-04-06T02:13:45;2.40;80.00
10980;DHT22;5543;51.734;8.744;2023-04-06T02:16:14;2.30;79.80
10980;DHT22;5543;51.734;8.744;2023-04-06T02:18:42;2.30;80.00
10980;DHT22;5543;51.734;8.744;2023-04-06T02:21:11;2.30;80.40
10980;DHT22;5543;51.734;8.744;2023-04-06T02:23:39;2.20;80.50
10980;DHT22;5543;51.734;8.744;2023-04-06T02:26:07;2.30;81.00
10980;DHT22;5543;51.734;8.744;2023-04-06T02:28:36;2.20;81.20
10980;DHT22;5543;51.734;8.744;2023-04-06T02:31:04;2.20;81.10
10980;DHT22;5543;51.734;8.744;2023-04-06T02:33:33;2.10;81.70
10980;DHT22;5543;51.734;8.744;2023-04-06T02:36:02;2.00;82.20
10980;DHT22;5543;51.734;8.744;2023-04-06T02:38:30;1.90;83.00
10980;DHT22;5543;51.734;8.744;2023-04-06T02:40:58;1.80;83.50
10980;DHT22;5543;51.734;8.744;2023-04-06T02:43:27;1.70;83.70
10980;DHT22;5543;51.734;8.744;2023-04-06T02:45:55;1.50;84.10
10980;DHT22;5543;51.734;8.744;2023-04-06T02:48:23;1.40;84.90
10980;DHT22;5543;51.734;8.744;2023-04-06T02:50:53;1.40;85.20
10980;DHT22;5543;51.734;8.744;2023-04-06T02:53:21;1.30;85.40
10980;DHT22;5543;51.734;8.744;2023-04-06T02:55:49;1.30;85.90
10980;DHT22;5543;51.734;8.744;2023-04-06T02:58:17;1.30;85.90
10980;DHT22;5543;51.734;8.744;2023-04-06T03:00:45;1.30;85.70
10980;DHT22;5543;51.734;8.744;2023-04-06T03:03:14;1.30;85.60
10980;DHT22;5543;51.734;8.744;2023-04-06T03:05:42;1.30;85.20
10980;DHT22;5543;51.734;8.744;2023-04-06T03:08:11;1.40;85.10
10980;DHT22;5543;51.734;8.744;2023-04-06T03:10:39;1.40;85.40
10980;DHT22;5543;51.734;8.744;2023-04-06T03:13:07;1.40;85.90
10980;DHT22;5543;51.734;8.744;2023-04-06T03:15:36;1.30;85.80
10980;DHT22;5543;51.734;8.744;2023-04-06T03:18:04;1.30;85.90
10980;DHT22;5543;51.734;8.744;2023-04-06T03:20:32;1.30;86.60
10980;DHT22;5543;51.734;8.744;2023-04-06T03:23:01;1.30;86.50
10980;DHT22;5543;51.734;8.744;2023-04-06T03:25:30;1.20;86.20
10980;DHT22;5543;51.734;8.744;2023-04-06T03:27:58;1.30;86.40
10980;DHT22;5543;51.734;8.744;2023-04-06T03:30:26;1.20;86.60
10980;DHT22;5543;51.734;8.744;2023-04-06T03:32:55;1.20;86.70
10980;DHT22;5543;51.734;8.744;2023-04-06T03:35:23;1.20;86.70
10980;DHT22;5543;51.734;8.744;2023-04-06T03:40:49;1.10;86.90
10980;DHT22;5543;51.734;8.744;2023-04-06T03:43:18;1.10;87.30
10980;DHT22;5543;51.734;8.744;2023-04-06T03:45:46;1.10;87.80
10980;DHT22;5543;51.734;8.744;2023-04-06T03:48:14;1.10;87.70
10980;DHT22;5543;51.734;8.744;2023-04-06T03:50:42;1.10;87.90
10980;DHT22;5543;51.734;8.744;2023-04-06T03:53:10;1.10;87.80
10980;DHT22;5543;51.734;8.744;2023-04-06T03:55:38;1.00;88.10
10980;DHT22;5543;51.734;8.744;2023-04-06T03:58:08;1.00;89.30
10980;DHT22;5543;51.734;8.744;2023-04-06T04:00:36;0.90;89.00
10980;DHT22;5543;51.734;8.744;2023-04-06T04:03:05;1.00;89.50
10980;DHT22;5543;51.734;8.744;2023-04-06T04:05:33;1.00;89.50
10980;DHT22;5543;51.734;8.744;2023-04-06T04:08:01;0.80;89.30
10980;DHT22;5543;51.734;8.744;2023-04-06T04:10:29;0.90;89.30
10980;DHT22;5543;51.734;8.744;2023-04-06T04:12:58;0.80;89.30
10980;DHT22;5543;51.734;8.744;2023-04-06T04:15:27;0.90;89.30
10980;DHT22;5543;51.734;8.744;2023-04-06T04:17:55;0.90;89.00
10980;DHT22;5543;51.734;8.744;2023-04-06T04:20:24;0.90;88.70
10980;DHT22;5543;51.734;8.744;2023-04-06T04:22:52;0.90;88.70
10980;DHT22;5543;51.734;8.744;2023-04-06T04:25:20;0.90;88.50
10980;DHT22;5543;51.734;8.744;2023-04-06T04:27:48;1.00;88.30
10980;DHT22;5543;51.734;8.744;2023-04-06T04:30:16;1.00;88.20
10980;DHT22;5543;51.734;8.744;2023-04-06T04:32:46;1.00;88.10
10980;DHT22;5543;51.734;8.744;2023-04-06T04:35:14;1.00;88.10
10980;DHT22;5543;51.734;8.744;2023-04-06T04:37:43;1.00;88.10
10980;DHT22;5543;51.734;8.744;2023-04-06T04:40:11;1.00;88.00
10980;DHT22;5543;51.734;8.744;2023-04-06T04:42:40;1.00;88.50
10980;DHT22;5543;51.734;8.744;2023-04-06T04:45:08;1.00;88.60
10980;DHT22;5543;51.734;8.744;2023-04-06T04:47:37;1.00;88.40
10980;DHT22;5543;51.734;8.744;2023-04-06T04:50:07;1.10;88.50
10980;DHT22;5543;51.734;8.744;2023-04-06T04:52:36;1.10;88.70
10980;DHT22;5543;51.734;8.744;2023-04-06T04:55:05;1.20;88.60
10980;DHT22;5543;51.734;8.744;2023-04-06T04:57:33;1.00;88.30
10980;DHT22;5543;51.734;8.744;2023-04-06T05:00:02;1.10;88.20
10980;DHT22;5543;51.734;8.744;2023-04-06T05:02:30;1.10;88.00
10980;DHT22;5543;51.734;8.744;2023-04-06T05:04:59;1.10;88.10
10980;DHT22;5543;51.734;8.744;2023-04-06T05:07:28;1.20;88.10
10980;DHT22;5543;51.734;8.744;2023-04-06T05:09:57;1.20;88.20
10980;DHT22;5543;51.734;8.744;2023-04-06T05:12:25;1.10;88.00
10980;DHT22;5543;51.734;8.744;2023-04-06T05:14:54;1.10;88.30
10980;DHT22;5543;51.734;8.744;2023-04-06T05:17:23;1.20;88.30
10980;DHT22;5543;51.734;8.744;2023-04-06T05:19:51;1.20;88.60
10980;DHT22;5543;51.734;8.744;2023-04-06T05:22:19;1.20;88.80
10980;DHT22;5543;51.734;8.744;2023-04-06T05:24:49;1.20;88.90
10980;DHT22;5543;51.734;8.744;2023-04-06T05:27:17;1.20;88.90
10980;DHT22;5543;51.734;8.744;2023-04-06T05:29:45;1.30;88.80
10980;DHT22;5543;51.734;8.744;2023-04-06T05:32:13;1.30;88.80
10980;DHT22;5543;51.734;8.744;2023-04-06T05:34:41;1.40;88.90
10980;DHT22;5543;51.734;8.744;2023-04-06T05:37:10;1.50;88.40
10980;DHT22;5543;51.734;8.744;2023-04-06T05:39:38;1.50;88.20
10980;DHT22;5543;51.734;8.744;2023-04-06T05:42:07;1.60;87.80
10980;DHT22;5543;51.734;8.744;2023-04-06T05:44:37;1.70;87.60
10980;DHT22;5543;51.734;8.744;2023-04-06T05:47:05;1.80;87.10
10980;DHT22;5543;51.734;8.744;2023-04-06T05:49:33;1.90;87.10
10980;DHT22;5543;51.734;8.744;2023-04-06T05:52:02;1.90;86.40
10980;DHT22;5543;51.734;8.744;2023-04-06T05:54:31;2.10;86.70
10980;DHT22;5543;51.734;8.744;2023-04-06T05:56:59;2.20;86.50
10980;DHT22;5543;51.734;8.744;2023-04-06T05:59:29;2.30;85.30
10980;DHT22;5543;51.734;8.744;2023-04-06T06:01:57;2.50;84.60
10980;DHT22;5543;51.734;8.744;2023-04-06T06:04:25;2.60;84.40
10980;DHT22;5543;51.734;8.744;2023-04-06T06:06:56;2.70;83.90
10980;DHT22;5543;51.734;8.744;2023-04-06T06:09:24;2.90;83.50
10980;DHT22;5543;51.734;8.744;2023-04-06T06:11:52;3.00;83.10
10980;DHT22;5543;51.734;8.744;2023-04-06T06:14:21;3.10;83.10
10980;DHT22;5543;51.734;8.744;2023-04-06T06:16:51;3.20;82.20
10980;DHT22;5543;51.734;8.744;2023-04-06T06:19:19;3.30;81.30
10980;DHT22;5543;51.734;8.744;2023-04-06T06:21:47;3.50;81.10
10980;DHT22;5543;51.734;8.744;2023-04-06T06:24:16;3.60;80.20
10980;DHT22;5543;51.734;8.744;2023-04-06T06:26:44;3.70;79.80
10980;DHT22;5543;51.734;8.744;2023-04-06T06:29:12;3.90;78.90
10980;DHT22;5543;51.734;8.744;2023-04-06T06:31:41;3.90;78.00
10980;DHT22;5543;51.734;8.744;2023-04-06T06:34:11;4.10;77.40
10980;DHT22;5543;51.734;8.744;2023-04-06T06:36:39;4.30;77.10
10980;DHT22;5543;51.734;8.744;2023-04-06T06:39:08;4.50;77.10
10980;DHT22;5543;51.734;8.744;2023-04-06T06:41:36;4.60;77.10
10980;DHT22;5543;51.734;8.744;2023-04-06T06:44:05;4.70;78.00
10980;DHT22;5543;51.734;8.744;2023-04-06T06:46:33;4.80;77.80
10980;DHT22;5543;51.734;8.744;2023-04-06T06:49:02;5.00;77.30
10980;DHT22;5543;51.734;8.744;2023-04-06T06:51:31;5.10;78.20
10980;DHT22;5543;51.734;8.744;2023-04-06T06:54:00;5.30;75.60
10980;DHT22;5543;51.734;8.744;2023-04-06T06:56:28;5.50;76.60
10980;DHT22;5543;51.734;8.744;2023-04-06T06:58:56;5.60;76.20
10980;DHT22;5543;51.734;8.744;2023-04-06T07:01:24;5.80;76.80
10980;DHT22;5543;51.734;8.744;2023-04-06T07:03:53;6.00;75.40
10980;DHT22;5543;51.734;8.744;2023-04-06T07:06:21;6.10;75.00
10980;DHT22;5543;51.734;8.744;2023-04-06T07:08:51;6.30;72.70
10980;DHT22;5543;51.734;8.744;2023-04-06T07:11:20;6.50;71.80
10980;DHT22;5543;51.734;8.744;2023-04-06T07:13:48;6.70;72.10
10980;DHT22;5543;51.734;8.744;2023-04-06T07:16:17;6.90;71.60
10980;DHT22;5543;51.734;8.744;2023-04-06T07:18:45;7.10;67.50
10980;DHT22;5543;51.734;8.744;2023-04-06T07:21:13;7.20;69.20
10980;DHT22;5543;51.734;8.744;2023-04-06T07:23:42;7.30;68.90
10980;DHT22;5543;51.734;8.744;2023-04-06T07:26:11;7.50;67.10
10980;DHT22;5543;51.734;8.744;2023-04-06T07:28:40;7.70;67.50
10980;DHT22;5543;51.734;8.744;2023-04-06T07:31:08;7.70;65.30
10980;DHT22;5543;51.734;8.744;2023-04-06T07:33:36;7.90;68.90
10980;DHT22;5543;51.734;8.744;2023-04-06T07:36:05;8.00;67.40
10980;DHT22;5543;51.734;8.744;2023-04-06T07:38:33;8.10;65.80
10980;DHT22;5543;51.734;8.744;2023-04-06T07:41:02;8.20;65.40
10980;DHT22;5543;51.734;8.744;2023-04-06T07:43:32;8.40;67.20
10980;DHT22;5543;51.734;8.744;2023-04-06T07:46:00;8.40;64.90
10980;DHT22;5543;51.734;8.744;2023-04-06T07:48:29;8.50;65.00
10980;DHT22;5543;51.734;8.744;2023-04-06T07:51:01;8.60;66.70
10980;DHT22;5543;51.734;8.744;2023-04-06T07:53:30;8.80;66.00
10980;DHT22;5543;51.734;8.744;2023-04-06T07:55:58;9.10;66.00
10980;DHT22;5543;51.734;8.744;2023-04-06T07:58:27;9.30;64.60
10980;DHT22;5543;51.734;8.744;2023-04-06T08:00:57;9.40;62.20
10980;DHT22;5543;51.734;8.744;2023-04-06T08:03:26;9.60;63.80
10980;DHT22;5543;51.734;8.744;2023-04-06T08:05:54;9.80;61.50
10980;DHT22;5543;51.734;8.744;2023-04-06T08:08:23;9.80;60.30
10980;DHT22;5543;51.734;8.744;2023-04-06T08:10:51;10.20;60.20
10980;DHT22;5543;51.734;8.744;2023-04-06T08:13:20;11.00;59.60
10980;DHT22;5543;51.734;8.744;2023-04-06T08:15:48;11.80;57.30
10980;DHT22;5543;51.734;8.744;2023-04-06T08:18:18;12.80;59.40
10980;DHT22;5543;51.734;8.744;2023-04-06T08:20:46;13.40;55.30
10980;DHT22;5543;51.734;8.744;2023-04-06T08:23:15;13.80;54.80
10980;DHT22;5543;51.734;8.744;2023-04-06T08:25:43;14.00;54.20
10980;DHT22;5543;51.734;8.744;2023-04-06T08:28:12;14.20;52.70
10980;DHT22;5543;51.734;8.744;2023-04-06T08:30:40;14.80;52.00
10980;DHT22;5543;51.734;8.744;2023-04-06T08:33:09;14.90;50.60
10980;DHT22;5543;51.734;8.744;2023-04-06T08:35:39;15.40;49.40
10980;DHT22;5543;51.734;8.744;2023-04-06T08:38:07;16.20;49.40
10980;DHT22;5543;51.734;8.744;2023-04-06T08:40:38;17.00;50.60
10980;DHT22;5543;51.734;8.744;2023-04-06T08:43:09;16.60;47.40
10980;DHT22;5543;51.734;8.744;2023-04-06T08:45:41;16.20;47.50
10980;DHT22;5543;51.734;8.744;2023-04-06T08:48:11;16.20;48.50
10980;DHT22;5543;51.734;8.744;2023-04-06T08:50:41;16.30;48.90
10980;DHT22;5543;51.734;8.744;2023-04-06T08:53:11;16.40;49.40
10980;DHT22;5543;51.734;8.744;2023-04-06T08:55:40;16.20;48.70
10980;DHT22;5543;51.734;8.744;2023-04-06T08:58:10;16.90;49.90
10980;DHT22;5543;51.734;8.744;2023-04-06T09:00:45;17.30;49.10
10980;DHT22;5543;51.734;8.744;2023-04-06T09:03:13;17.80;47.10
10980;DHT22;5543;51.734;8.744;2023-04-06T09:05:45;17.80;47.90
10980;DHT22;5543;51.734;8.744;2023-04-06T09:08:14;17.70;45.80
10980;DHT22;5543;51.734;8.744;2023-04-06T09:10:43;17.40;49.00
10980;DHT22;5543;51.734;8.744;2023-04-06T09:13:12;16.80;47.40
10980;DHT22;5543;51.734;8.744;2023-04-06T09:15:40;16.30;48.20
10980;DHT22;5543;51.734;8.744;2023-04-06T09:18:08;16.80;48.90
10980;DHT22;5543;51.734;8.744;2023-04-06T09:20:37;17.20;47.90
10980;DHT22;5543;51.734;8.744;2023-04-06T09:23:06;17.80;48.90
10980;DHT22;5543;51.734;8.744;2023-04-06T09:25:46;17.80;47.40
10980;DHT22;5543;51.734;8.744;2023-04-06T09:28:14;17.80;48.80
10980;DHT22;5543;51.734;8.744;2023-04-06T09:30:48;17.30;46.90
10980;DHT22;5543;51.734;8.744;2023-04-06T09:33:22;18.40;47.00
10980;DHT22;5543;51.734;8.744;2023-04-06T09:35:50;17.50;45.70
10980;DHT22;5543;51.734;8.744;2023-04-06T09:38:20;17.80;46.70
10980;DHT22;5543;51.734;8.744;2023-04-06T09:40:49;17.70;46.10
10980;DHT22;5543;51.734;8.744;2023-04-06T09:43:27;17.70;46.90
10980;DHT22;5543;51.734;8.744;2023-04-06T09:45:56;18.50;47.50
10980;DHT22;5543;51.734;8.744;2023-04-06T09:48:26;18.80;46.10
10980;DHT22;5543;51.734;8.744;2023-04-06T09:50:59;19.30;44.60
10980;DHT22;5543;51.734;8.744;2023-04-06T09:53:30;19.00;45.30
10980;DHT22;5543;51.734;8.744;2023-04-06T09:56:02;19.30;46.40
10980;DHT22;5543;51.734;8.744;2023-04-06T09:58:34;19.30;44.80
10980;DHT22;5543;51.734;8.744;2023-04-06T10:01:08;19.40;44.20
10980;DHT22;5543;51.734;8.744;2023-04-06T10:03:44;18.70;44.50
10980;DHT22;5543;51.734;8.744;2023-04-06T10:06:15;19.30;46.00
10980;DHT22;5543;51.734;8.744;2023-04-06T10:08:47;20.00;44.10
10980;DHT22;5543;51.734;8.744;2023-04-06T10:11:18;20.10;45.10
10980;DHT22;5543;51.734;8.744;2023-04-06T10:13:48;19.90;43.20
10980;DHT22;5543;51.734;8.744;2023-04-06T10:16:17;20.20;44.20
10980;DHT22;5543;51.734;8.744;2023-04-06T10:18:49;20.10;44.30
10980;DHT22;5543;51.734;8.744;2023-04-06T10:21:23;19.60;44.70
10980;DHT22;5543;51.734;8.744;2023-04-06T10:23:58;20.10;45.50
10980;DHT22;5543;51.734;8.744;2023-04-06T10:26:28;20.10;44.10
10980;DHT22;5543;51.734;8.744;2023-04-06T10:29:02;20.90;46.70
10980;DHT22;5543;51.734;8.744;2023-04-06T10:31:31;21.20;43.70
10980;DHT22;5543;51.734;8.744;2023-04-06T10:34:01;21.60;43.30
10980;DHT22;5543;51.734;8.744;2023-04-06T10:36:33;21.50;43.80
10980;DHT22;5543;51.734;8.744;2023-04-06T10:39:04;21.00;43.20
10980;DHT22;5543;51.734;8.744;2023-04-06T10:41:33;20.40;44.20
10980;DHT22;5543;51.734;8.744;2023-04-06T10:44:02;21.30;43.80
10980;DHT22;5543;51.734;8.744;2023-04-06T10:46:32;21.20;43.20
10980;DHT22;5543;51.734;8.744;2023-04-06T10:49:10;21.20;42.70
10980;DHT22;5543;51.734;8.744;2023-04-06T10:51:42;21.70;43.40
10980;DHT22;5543;51.734;8.744;2023-04-06T10:54:12;21.70;42.90
10980;DHT22;5543;51.734;8.744;2023-04-06T10:56:41;21.10;41.40
10980;DHT22;5543;51.734;8.744;2023-04-06T10:59:09;21.10;42.00
10980;DHT22;5543;51.734;8.744;2023-04-06T11:01:37;21.10;43.40
10980;DHT22;5543;51.734;8.744;2023-04-06T11:04:06;20.90;43.90
10980;DHT22;5543;51.734;8.744;2023-04-06T11:06:37;20.30;42.60
10980;DHT22;5543;51.734;8.744;2023-04-06T11:09:06;19.70;43.30
10980;DHT22;5543;51.734;8.744;2023-04-06T11:11:39;19.90;44.10
10980;DHT22;5543;51.734;8.744;2023-04-06T11:14:09;19.70;43.70
10980;DHT22;5543;51.734;8.744;2023-04-06T11:16:38;20.20;43.00
10980;DHT22;5543;51.734;8.744;2023-04-06T11:19:06;19.90;42.60
10980;DHT22;5543;51.734;8.744;2023-04-06T11:21:35;19.60;42.40
10980;DHT22;5543;51.734;8.744;2023-04-06T11:24:07;19.10;43.90
10980;DHT22;5543;51.734;8.744;2023-04-06T11:26:44;18.80;45.60
10980;DHT22;5543;51.734;8.744;2023-04-06T11:29:15;18.30;44.10
10980;DHT22;5543;51.734;8.744;2023-04-06T11:31:45;17.90;43.40
10980;DHT22;5543;51.734;8.744;2023-04-06T11:34:16;17.80;47.00
10980;DHT22;5543;51.734;8.744;2023-04-06T11:36:46;17.30;45.70
10980;DHT22;5543;51.734;8.744;2023-04-06T11:39:19;17.50;46.90
10980;DHT22;5543;51.734;8.744;2023-04-06T11:41:50;17.50;47.40
10980;DHT22;5543;51.734;8.744;2023-04-06T11:44:29;17.10;47.50
10980;DHT22;5543;51.734;8.744;2023-04-06T11:47:00;16.40;46.00
10980;DHT22;5543;51.734;8.744;2023-04-06T11:49:29;16.30;46.70
10980;DHT22;5543;51.734;8.744;2023-04-06T11:51:58;16.40;47.80
10980;DHT22;5543;51.734;8.744;2023-04-06T11:54:30;16.50;46.70
10980;DHT22;5543;51.734;8.744;2023-04-06T11:57:00;16.30;46.50
10980;DHT22;5543;51.734;8.744;2023-04-06T11:59:29;16.40;49.10
10980;DHT22;5543;51.734;8.744;2023-04-06T12:01:57;16.70;47.00
10980;DHT22;5543;51.734;8.744;2023-04-06T12:04:26;17.10;45.80
10980;DHT22;5543;51.734;8.744;2023-04-06T12:06:54;17.70;43.50
10980;DHT22;5543;51.734;8.744;2023-04-06T12:09:22;17.90;44.00
10980;DHT22;5543;51.734;8.744;2023-04-06T12:11:50;17.70;42.30
10980;DHT22;5543;51.734;8.744;2023-04-06T12:14:21;17.90;37.80
10980;DHT22;5543;51.734;8.744;2023-04-06T12:16:49;17.80;40.50
10980;DHT22;5543;51.734;8.744;2023-04-06T12:19:17;17.80;38.50
10980;DHT22;5543;51.734;8.744;2023-04-06T12:21:45;17.30;38.20
10980;DHT22;5543;51.734;8.744;2023-04-06T12:24:14;17.10;38.60
10980;DHT22;5543;51.734;8.744;2023-04-06T12:26:42;17.00;39.70
10980;DHT22;5543;51.734;8.744;2023-04-06T12:29:11;17.00;38.70
10980;DHT22;5543;51.734;8.744;2023-04-06T12:31:41;16.90;39.30
10980;DHT22;5543;51.734;8.744;2023-04-06T12:34:11;17.10;41.30
10980;DHT22;5543;51.734;8.744;2023-04-06T12:36:39;17.20;41.20
10980;DHT22;5543;51.734;8.744;2023-04-06T12:39:08;17.10;38.20
10980;DHT22;5543;51.734;8.744;2023-04-06T12:44:18;16.90;40.60
10980;DHT22;5543;51.734;8.744;2023-04-06T12:46:47;17.10;42.80
10980;DHT22;5543;51.734;8.744;2023-04-06T12:49:17;17.10;42.90
10980;DHT22;5543;51.734;8.744;2023-04-06T12:51:45;16.60;41.30
10980;DHT22;5543;51.734;8.744;2023-04-06T12:54:14;16.80;40.70
10980;DHT22;5543;51.734;8.744;2023-04-06T12:56:42;17.30;42.40
10980;DHT22;5543;51.734;8.744;2023-04-06T12:59:10;17.80;41.40
10980;DHT22;5543;51.734;8.744;2023-04-06T13:01:38;18.20;38.50
10980;DHT22;5543;51.734;8.744;2023-04-06T13:04:10;18.30;37.80
10980;DHT22;5543;51.734;8.744;2023-04-06T13:06:38;18.50;41.20
10980;DHT22;5543;51.734;8.744;2023-04-06T13:09:07;18.40;40.00
10980;DHT22;5543;51.734;8.744;2023-04-06T13:11:35;18.80;38.60
10980;DHT22;5543;51.734;8.744;2023-04-06T13:14:03;18.90;38.10
10980;DHT22;5543;51.734;8.744;2023-04-06T13:16:34;19.00;41.40
10980;DHT22;5543;51.734;8.744;2023-04-06T13:19:03;18.80;40.30
10980;DHT22;5543;51.734;8.744;2023-04-06T13:21:36;18.40;39.20
10980;DHT22;5543;51.734;8.744;2023-04-06T13:24:04;18.60;40.40
10980;DHT22;5543;51.734;8.744;2023-04-06T13:26:33;18.60;38.80
10980;DHT22;5543;51.734;8.744;2023-04-06T13:29:01;18.60;39.70
10980;DHT22;5543;51.734;8.744;2023-04-06T13:31:29;18.50;42.00
10980;DHT22;5543;51.734;8.744;2023-04-06T13:33:58;18.70;40.50
10980;DHT22;5543;51.734;8.744;2023-04-06T13:36:26;18.90;39.40
10980;DHT22;5543;51.734;8.744;2023-04-06T13:38:56;18.90;39.80
10980;DHT22;5543;51.734;8.744;2023-04-06T13:41:25;18.60;39.60
10980;DHT22;5543;51.734;8.744;2023-04-06T13:43:54;18.40;40.50
10980;DHT22;5543;51.734;8.744;2023-04-06T13:46:22;18.30;40.80
10980;DHT22;5543;51.734;8.744;2023-04-06T13:48:51;18.50;40.60
10980;DHT22;5543;51.734;8.744;2023-04-06T13:51:19;18.90;40.10
10980;DHT22;5543;51.734;8.744;2023-04-06T13:53:47;18.90;40.00
10980;DHT22;5543;51.734;8.744;2023-04-06T13:56:20;18.70;41.40
10980;DHT22;5543;51.734;8.744;2023-04-06T13:58:48;18.60;41.50
10980;DHT22;5543;51.734;8.744;2023-04-06T14:01:16;18.90;41.90
10980;DHT22;5543;51.734;8.744;2023-04-06T14:03:45;19.30;40.50
10980;DHT22;5543;51.734;8.744;2023-04-06T14:06:14;19.70;40.10
10980;DHT22;5543;51.734;8.744;2023-04-06T14:08:45;20.10;40.20
10980;DHT22;5543;51.734;8.744;2023-04-06T14:11:14;20.30;40.90
10980;DHT22;5543;51.734;8.744;2023-04-06T14:13:44;20.40;39.90
10980;DHT22;5543;51.734;8.744;2023-04-06T14:16:13;20.20;41.50
10980;DHT22;5543;51.734;8.744;2023-04-06T14:18:42;20.20;41.10
10980;DHT22;5543;51.734;8.744;2023-04-06T14:21:10;19.80;41.00
10980;DHT22;5543;51.734;8.744;2023-04-06T14:23:38;19.60;39.70
10980;DHT22;5543;51.734;8.744;2023-04-06T14:26:07;19.20;39.80
10980;DHT22;5543;51.734;8.744;2023-04-06T14:28:35;19.00;40.20
10980;DHT22;5543;51.734;8.744;2023-04-06T14:31:12;18.80;40.10
10980;DHT22;5543;51.734;8.744;2023-04-06T14:33:41;18.50;41.60
10980;DHT22;5543;51.734;8.744;2023-04-06T14:36:10;18.30;44.50
10980;DHT22;5543;51.734;8.744;2023-04-06T14:38:38;18.30;43.10
10980;DHT22;5543;51.734;8.744;2023-04-06T14:41:08;18.30;39.40
10980;DHT22;5543;51.734;8.744;2023-04-06T14:43:37;18.20;41.60
10980;DHT22;5543;51.734;8.744;2023-04-06T14:46:05;18.00;43.20
10980;DHT22;5543;51.734;8.744;2023-04-06T14:48:36;17.70;41.70
10980;DHT22;5543;51.734;8.744;2023-04-06T14:51:04;18.00;41.60
10980;DHT22;5543;51.734;8.744;2023-04-06T14:53:33;18.00;41.40
10980;DHT22;5543;51.734;8.744;2023-04-06T14:56:01;17.80;40.20
10980;DHT22;5543;51.734;8.744;2023-04-06T14:58:29;18.10;41.00
10980;DHT22;5543;51.734;8.744;2023-04-06T15:00:59;18.40;40.70
10980;DHT22;5543;51.734;8.744;2023-04-06T15:03:28;18.50;40.00
10980;DHT22;5543;51.734;8.744;2023-04-06T15:05:58;18.70;39.40
10980;DHT22;5543;51.734;8.744;2023-04-06T15:08:26;18.70;39.40
10980;DHT22;5543;51.734;8.744;2023-04-06T15:10:59;18.80;40.20
10980;DHT22;5543;51.734;8.744;2023-04-06T15:13:27;18.80;39.80
10980;DHT22;5543;51.734;8.744;2023-04-06T15:15:56;18.50;41.80
10980;DHT22;5543;51.734;8.744;2023-04-06T15:18:27;18.30;41.50
10980;DHT22;5543;51.734;8.744;2023-04-06T15:20:55;17.60;42.10
10980;DHT22;5543;51.734;8.744;2023-04-06T15:23:26;17.40;43.80
10980;DHT22;5543;51.734;8.744;2023-04-06T15:25:56;17.50;42.90
10980;DHT22;5543;51.734;8.744;2023-04-06T15:28:25;17.30;43.50
10980;DHT22;5543;51.734;8.744;2023-04-06T15:30:53;17.30;43.20
10980;DHT22;5543;51.734;8.744;2023-04-06T15:33:22;17.20;44.00
10980;DHT22;5543;51.734;8.744;2023-04-06T15:35:50;17.10;45.00
10980;DHT22;5543;51.734;8.744;2023-04-06T15:38:18;16.70;45.40
10980;DHT22;5543;51.734;8.744;2023-04-06T15:40:49;16.50;44.30
10980;DHT22;5543;51.734;8.744;2023-04-06T15:43:17;16.40;44.40
10980;DHT22;5543;51.734;8.744;2023-04-06T15:45:45;16.20;43.20
10980;DHT22;5543;51.734;8.744;2023-04-06T15:48:13;16.10;45.20
10980;DHT22;5543;51.734;8.744;2023-04-06T15:50:41;16.00;46.30
10980;DHT22;5543;51.734;8.744;2023-04-06T15:53:09;15.90;47.40
10980;DHT22;5543;51.734;8.744;2023-04-06T15:55:38;15.90;46.50
10980;DHT22;5543;51.734;8.744;2023-04-06T15:58:07;15.80;47.50
10980;DHT22;5543;51.734;8.744;2023-04-06T16:00:36;15.70;48.30
10980;DHT22;5543;51.734;8.744;2023-04-06T16:03:04;15.70;47.30
10980;DHT22;5543;51.734;8.744;2023-04-06T16:05:33;15.60;46.70
10980;DHT22;5543;51.734;8.744;2023-04-06T16:08:19;15.20;46.70
10980;DHT22;5543;51.734;8.744;2023-04-06T16:10:48;15.00;47.30